Pagrindinis puslapis
METAR-TAF:

METAR-TAF

Oro uostai :

Arasatuba, San Paulas, Brazilija

platuma: 21-08-39S, ilguma: 050-25-35W, Aukštis: 415 m

Dabartinis oras

Ataskaita buvo paskelbta 11 valandos ir 8 minutes, ne 10:00 UTC
Vėjas 2 kt iš Šiaurės Rytų
Temperatūra 22°C
Drėgmė 94%
Slėgis 1011 hPa
Matomumas 10 km arba daugiau
Mažai debesys ne aukštis 1000 ft
Su prošvaistėmis ne aukštis 8000 ft

METAR: SBAU 121000Z 05002KT 9999 FEW010 BKN080 22/21 Q1011

Laikas: 18:08 (21:08 UTC)


TAF: trūkstamas

Orai ataskaitas ir orų prognozės (METAR, TAF).

turimą stotys yra geltonos ir raudonos taškus žemėlapyje.

Perkelti pele per norėdami pamatyti stoties vardą.

Tada spustelėkite, norėdami matyti oro stebėjimo ir prognozės.

Norėdami pakeisti žemėlapį: spustelėkite ant žalios mygtukų su juodo kryžiaus žemyn,; žalią mygtuką su brūkšneliu, jei norite nutolinti; arba žalių rodyklių gretimoms žemėlapius.


METAR-TAF: